sensor_id;sensor_type;location;lat;lon;timestamp;P1;durP1;ratioP1;P2;durP2;ratioP2
39078;SDS011;24829;49.208;12.080;2022-12-07T00:01:07;12.73;;;7.70;;
39078;SDS011;24829;49.208;12.080;2022-12-07T00:03:51;10.60;;;7.40;;
39078;SDS011;24829;49.208;12.080;2022-12-07T00:06:18;12.90;;;8.43;;
39078;SDS011;24829;49.208;12.080;2022-12-07T00:08:45;12.57;;;8.32;;
39078;SDS011;24829;49.208;12.080;2022-12-07T00:11:12;12.35;;;8.18;;
39078;SDS011;24829;49.208;12.080;2022-12-07T00:13:39;13.30;;;7.65;;
39078;SDS011;24829;49.208;12.080;2022-12-07T00:16:09;12.00;;;8.13;;
39078;SDS011;24829;49.208;12.080;2022-12-07T00:18:37;13.63;;;8.87;;
39078;SDS011;24829;49.208;12.080;2022-12-07T00:21:04;12.15;;;8.15;;
39078;SDS011;24829;49.208;12.080;2022-12-07T00:23:30;10.93;;;7.95;;
39078;SDS011;24829;49.208;12.080;2022-12-07T00:25:56;12.82;;;8.80;;
39078;SDS011;24829;49.208;12.080;2022-12-07T00:28:28;13.15;;;8.32;;
39078;SDS011;24829;49.208;12.080;2022-12-07T00:30:59;11.95;;;7.47;;
39078;SDS011;24829;49.208;12.080;2022-12-07T00:33:26;10.93;;;7.50;;
39078;SDS011;24829;49.208;12.080;2022-12-07T00:35:57;12.95;;;8.15;;
39078;SDS011;24829;49.208;12.080;2022-12-07T00:38:23;12.88;;;8.27;;
39078;SDS011;24829;49.208;12.080;2022-12-07T00:40:59;11.40;;;7.43;;
39078;SDS011;24829;49.208;12.080;2022-12-07T00:43:30;10.70;;;7.43;;
39078;SDS011;24829;49.208;12.080;2022-12-07T00:45:55;9.27;;;6.25;;
39078;SDS011;24829;49.208;12.080;2022-12-07T00:48:22;10.05;;;7.60;;
39078;SDS011;24829;49.208;12.080;2022-12-07T00:50:48;9.57;;;7.07;;
39078;SDS011;24829;49.208;12.080;2022-12-07T00:53:14;8.63;;;6.25;;
39078;SDS011;24829;49.208;12.080;2022-12-07T00:55:40;13.18;;;6.68;;
39078;SDS011;24829;49.208;12.080;2022-12-07T00:58:06;10.13;;;6.90;;
39078;SDS011;24829;49.208;12.080;2022-12-07T01:00:32;12.13;;;7.85;;
39078;SDS011;24829;49.208;12.080;2022-12-07T01:02:58;10.98;;;8.43;;
39078;SDS011;24829;49.208;12.080;2022-12-07T01:05:24;10.85;;;8.35;;
39078;SDS011;24829;49.208;12.080;2022-12-07T01:07:50;12.43;;;8.00;;
39078;SDS011;24829;49.208;12.080;2022-12-07T01:10:15;11.60;;;7.80;;
39078;SDS011;24829;49.208;12.080;2022-12-07T01:12:41;11.50;;;8.15;;
39078;SDS011;24829;49.208;12.080;2022-12-07T01:15:07;12.00;;;7.90;;
39078;SDS011;24829;49.208;12.080;2022-12-07T01:17:33;11.57;;;8.02;;
39078;SDS011;24829;49.208;12.080;2022-12-07T01:19:59;12.40;;;7.85;;
39078;SDS011;24829;49.208;12.080;2022-12-07T01:22:25;11.65;;;7.90;;
39078;SDS011;24829;49.208;12.080;2022-12-07T01:24:51;11.75;;;8.32;;
39078;SDS011;24829;49.208;12.080;2022-12-07T01:27:16;12.02;;;8.10;;
39078;SDS011;24829;49.208;12.080;2022-12-07T01:29:42;12.13;;;8.05;;
39078;SDS011;24829;49.208;12.080;2022-12-07T01:32:08;12.55;;;8.45;;
39078;SDS011;24829;49.208;12.080;2022-12-07T01:34:33;11.63;;;7.93;;
39078;SDS011;24829;49.208;12.080;2022-12-07T01:36:59;15.35;;;9.43;;
39078;SDS011;24829;49.208;12.080;2022-12-07T01:39:24;11.80;;;8.32;;
39078;SDS011;24829;49.208;12.080;2022-12-07T01:41:50;13.23;;;9.25;;
39078;SDS011;24829;49.208;12.080;2022-12-07T01:44:26;13.48;;;9.75;;
39078;SDS011;24829;49.208;12.080;2022-12-07T01:46:57;12.68;;;9.05;;
39078;SDS011;24829;49.208;12.080;2022-12-07T01:49:34;13.52;;;9.98;;
39078;SDS011;24829;49.208;12.080;2022-12-07T01:52:22;12.38;;;8.70;;
39078;SDS011;24829;49.208;12.080;2022-12-07T01:55:03;13.57;;;9.00;;
39078;SDS011;24829;49.208;12.080;2022-12-07T01:57:31;12.52;;;8.48;;
39078;SDS011;24829;49.208;12.080;2022-12-07T02:00:01;10.80;;;8.13;;
39078;SDS011;24829;49.208;12.080;2022-12-07T02:02:30;11.02;;;7.95;;
39078;SDS011;24829;49.208;12.080;2022-12-07T02:05:02;11.48;;;8.57;;
39078;SDS011;24829;49.208;12.080;2022-12-07T02:07:30;15.10;;;9.05;;
39078;SDS011;24829;49.208;12.080;2022-12-07T02:09:57;12.52;;;8.88;;
39078;SDS011;24829;49.208;12.080;2022-12-07T02:12:36;10.98;;;8.43;;
39078;SDS011;24829;49.208;12.080;2022-12-07T02:15:02;10.52;;;8.00;;
39078;SDS011;24829;49.208;12.080;2022-12-07T02:17:32;10.52;;;7.43;;
39078;SDS011;24829;49.208;12.080;2022-12-07T02:23:04;10.77;;;7.82;;
39078;SDS011;24829;49.208;12.080;2022-12-07T02:29:03;10.52;;;7.80;;
39078;SDS011;24829;49.208;12.080;2022-12-07T02:31:43;12.07;;;8.90;;
39078;SDS011;24829;49.208;12.080;2022-12-07T02:34:19;13.75;;;8.70;;
39078;SDS011;24829;49.208;12.080;2022-12-07T02:36:52;12.27;;;8.85;;
39078;SDS011;24829;49.208;12.080;2022-12-07T02:39:28;12.57;;;9.23;;
39078;SDS011;24829;49.208;12.080;2022-12-07T02:42:09;12.35;;;8.13;;
39078;SDS011;24829;49.208;12.080;2022-12-07T02:44:40;13.77;;;8.60;;
39078;SDS011;24829;49.208;12.080;2022-12-07T02:47:07;12.02;;;8.75;;
39078;SDS011;24829;49.208;12.080;2022-12-07T02:49:36;13.52;;;8.88;;
39078;SDS011;24829;49.208;12.080;2022-12-07T02:52:03;11.77;;;8.85;;
39078;SDS011;24829;49.208;12.080;2022-12-07T02:54:29;12.50;;;9.07;;
39078;SDS011;24829;49.208;12.080;2022-12-07T02:57:04;12.73;;;10.20;;
39078;SDS011;24829;49.208;12.080;2022-12-07T03:02:29;12.02;;;7.93;;
39078;SDS011;24829;49.208;12.080;2022-12-07T03:05:13;13.30;;;8.95;;
39078;SDS011;24829;49.208;12.080;2022-12-07T03:07:59;11.55;;;7.93;;
39078;SDS011;24829;49.208;12.080;2022-12-07T03:18:49;14.63;;;8.48;;
39078;SDS011;24829;49.208;12.080;2022-12-07T03:21:42;13.23;;;9.32;;
39078;SDS011;24829;49.208;12.080;2022-12-07T03:24:15;13.13;;;8.98;;
39078;SDS011;24829;49.208;12.080;2022-12-07T03:26:45;14.00;;;8.82;;
39078;SDS011;24829;49.208;12.080;2022-12-07T03:29:18;18.83;;;10.65;;
39078;SDS011;24829;49.208;12.080;2022-12-07T03:31:55;15.95;;;10.77;;
39078;SDS011;24829;49.208;12.080;2022-12-07T03:34:31;13.95;;;9.60;;
39078;SDS011;24829;49.208;12.080;2022-12-07T03:37:11;14.98;;;9.35;;
39078;SDS011;24829;49.208;12.080;2022-12-07T03:39:45;14.73;;;10.38;;
39078;SDS011;24829;49.208;12.080;2022-12-07T03:42:19;14.35;;;9.43;;
39078;SDS011;24829;49.208;12.080;2022-12-07T03:44:45;12.55;;;8.68;;
39078;SDS011;24829;49.208;12.080;2022-12-07T03:49:46;12.60;;;8.32;;
39078;SDS011;24829;49.208;12.080;2022-12-07T03:57:21;13.10;;;8.57;;
39078;SDS011;24829;49.208;12.080;2022-12-07T03:59:49;11.98;;;8.23;;
39078;SDS011;24829;49.208;12.080;2022-12-07T04:02:15;11.70;;;8.02;;
39078;SDS011;24829;49.208;12.080;2022-12-07T04:04:42;14.95;;;8.95;;
39078;SDS011;24829;49.208;12.080;2022-12-07T04:07:08;13.35;;;9.55;;
39078;SDS011;24829;49.208;12.080;2022-12-07T04:09:34;13.30;;;9.63;;
39078;SDS011;24829;49.208;12.080;2022-12-07T04:11:59;15.88;;;10.02;;
39078;SDS011;24829;49.208;12.080;2022-12-07T04:14:25;13.95;;;9.23;;
39078;SDS011;24829;49.208;12.080;2022-12-07T04:16:52;12.77;;;9.10;;
39078;SDS011;24829;49.208;12.080;2022-12-07T04:19:22;15.63;;;8.85;;
39078;SDS011;24829;49.208;12.080;2022-12-07T04:21:49;13.70;;;9.68;;
39078;SDS011;24829;49.208;12.080;2022-12-07T04:24:15;14.05;;;9.65;;
39078;SDS011;24829;49.208;12.080;2022-12-07T04:26:41;18.45;;;9.43;;
39078;SDS011;24829;49.208;12.080;2022-12-07T04:29:08;12.77;;;8.90;;
39078;SDS011;24829;49.208;12.080;2022-12-07T04:31:34;14.93;;;9.43;;
39078;SDS011;24829;49.208;12.080;2022-12-07T04:34:01;13.10;;;9.05;;
39078;SDS011;24829;49.208;12.080;2022-12-07T04:36:27;13.25;;;9.02;;
39078;SDS011;24829;49.208;12.080;2022-12-07T04:38:53;14.60;;;9.43;;
39078;SDS011;24829;49.208;12.080;2022-12-07T04:41:20;13.90;;;9.20;;
39078;SDS011;24829;49.208;12.080;2022-12-07T04:43:52;15.13;;;9.82;;
39078;SDS011;24829;49.208;12.080;2022-12-07T04:46:19;13.30;;;9.38;;
39078;SDS011;24829;49.208;12.080;2022-12-07T04:48:44;14.52;;;9.63;;
39078;SDS011;24829;49.208;12.080;2022-12-07T04:51:10;13.77;;;9.45;;
39078;SDS011;24829;49.208;12.080;2022-12-07T04:53:35;12.68;;;8.85;;
39078;SDS011;24829;49.208;12.080;2022-12-07T04:56:01;12.98;;;9.02;;
39078;SDS011;24829;49.208;12.080;2022-12-07T04:58:27;13.90;;;9.68;;
39078;SDS011;24829;49.208;12.080;2022-12-07T05:00:55;16.75;;;11.30;;
39078;SDS011;24829;49.208;12.080;2022-12-07T05:03:21;16.13;;;10.93;;
39078;SDS011;24829;49.208;12.080;2022-12-07T05:05:46;17.15;;;11.57;;
39078;SDS011;24829;49.208;12.080;2022-12-07T05:08:12;15.85;;;10.25;;
39078;SDS011;24829;49.208;12.080;2022-12-07T05:10:37;15.70;;;9.77;;
39078;SDS011;24829;49.208;12.080;2022-12-07T05:13:03;15.48;;;9.73;;
39078;SDS011;24829;49.208;12.080;2022-12-07T05:15:29;15.02;;;10.55;;
39078;SDS011;24829;49.208;12.080;2022-12-07T05:17:54;17.13;;;11.40;;
39078;SDS011;24829;49.208;12.080;2022-12-07T05:20:20;18.52;;;11.82;;
39078;SDS011;24829;49.208;12.080;2022-12-07T05:22:45;19.20;;;11.25;;
39078;SDS011;24829;49.208;12.080;2022-12-07T05:25:11;16.35;;;10.77;;
39078;SDS011;24829;49.208;12.080;2022-12-07T05:27:36;23.02;;;12.70;;
39078;SDS011;24829;49.208;12.080;2022-12-07T05:30:02;19.25;;;12.05;;
39078;SDS011;24829;49.208;12.080;2022-12-07T05:32:28;20.50;;;12.60;;
39078;SDS011;24829;49.208;12.080;2022-12-07T05:34:54;20.17;;;11.73;;
39078;SDS011;24829;49.208;12.080;2022-12-07T05:37:20;20.45;;;12.20;;
39078;SDS011;24829;49.208;12.080;2022-12-07T05:39:45;18.10;;;10.95;;
39078;SDS011;24829;49.208;12.080;2022-12-07T05:42:11;20.55;;;13.40;;
39078;SDS011;24829;49.208;12.080;2022-12-07T05:44:36;24.25;;;13.45;;
39078;SDS011;24829;49.208;12.080;2022-12-07T05:47:02;20.92;;;12.77;;
39078;SDS011;24829;49.208;12.080;2022-12-07T05:49:28;20.23;;;12.70;;
39078;SDS011;24829;49.208;12.080;2022-12-07T05:51:53;22.30;;;12.85;;
39078;SDS011;24829;49.208;12.080;2022-12-07T05:54:19;23.00;;;13.05;;
39078;SDS011;24829;49.208;12.080;2022-12-07T05:56:45;26.67;;;15.77;;
39078;SDS011;24829;49.208;12.080;2022-12-07T05:59:10;109.22;;;45.72;;
39078;SDS011;24829;49.208;12.080;2022-12-07T06:01:51;85.50;;;35.80;;
39078;SDS011;24829;49.208;12.080;2022-12-07T06:04:18;37.85;;;20.38;;
39078;SDS011;24829;49.208;12.080;2022-12-07T06:06:45;30.98;;;16.75;;
39078;SDS011;24829;49.208;12.080;2022-12-07T06:09:11;25.67;;;14.38;;
39078;SDS011;24829;49.208;12.080;2022-12-07T06:11:37;26.02;;;14.90;;
39078;SDS011;24829;49.208;12.080;2022-12-07T06:14:22;26.13;;;15.63;;
39078;SDS011;24829;49.208;12.080;2022-12-07T06:16:47;25.30;;;15.10;;
39078;SDS011;24829;49.208;12.080;2022-12-07T06:19:13;28.13;;;15.73;;
39078;SDS011;24829;49.208;12.080;2022-12-07T06:21:39;25.65;;;15.68;;
39078;SDS011;24829;49.208;12.080;2022-12-07T06:24:04;26.33;;;15.82;;
39078;SDS011;24829;49.208;12.080;2022-12-07T06:26:30;22.65;;;14.23;;
39078;SDS011;24829;49.208;12.080;2022-12-07T06:28:56;24.45;;;14.35;;
39078;SDS011;24829;49.208;12.080;2022-12-07T06:31:21;26.98;;;14.52;;
39078;SDS011;24829;49.208;12.080;2022-12-07T06:33:47;24.17;;;14.35;;
39078;SDS011;24829;49.208;12.080;2022-12-07T06:36:13;23.70;;;14.02;;
39078;SDS011;24829;49.208;12.080;2022-12-07T06:38:38;23.88;;;14.88;;
39078;SDS011;24829;49.208;12.080;2022-12-07T06:41:04;27.48;;;14.27;;
39078;SDS011;24829;49.208;12.080;2022-12-07T06:43:30;22.30;;;13.70;;
39078;SDS011;24829;49.208;12.080;2022-12-07T06:45:55;25.48;;;14.35;;
39078;SDS011;24829;49.208;12.080;2022-12-07T06:48:21;26.17;;;15.85;;
39078;SDS011;24829;49.208;12.080;2022-12-07T06:50:47;23.75;;;14.30;;
39078;SDS011;24829;49.208;12.080;2022-12-07T06:53:13;26.77;;;14.75;;
39078;SDS011;24829;49.208;12.080;2022-12-07T06:55:39;26.95;;;16.52;;
39078;SDS011;24829;49.208;12.080;2022-12-07T06:58:04;23.45;;;13.77;;
39078;SDS011;24829;49.208;12.080;2022-12-07T07:00:30;23.83;;;13.80;;
39078;SDS011;24829;49.208;12.080;2022-12-07T07:02:56;25.67;;;15.15;;
39078;SDS011;24829;49.208;12.080;2022-12-07T07:05:21;30.17;;;16.63;;
39078;SDS011;24829;49.208;12.080;2022-12-07T07:07:50;24.38;;;14.70;;
39078;SDS011;24829;49.208;12.080;2022-12-07T07:10:16;26.42;;;13.48;;
39078;SDS011;24829;49.208;12.080;2022-12-07T07:12:42;26.80;;;15.25;;
39078;SDS011;24829;49.208;12.080;2022-12-07T07:15:07;26.92;;;15.57;;
39078;SDS011;24829;49.208;12.080;2022-12-07T07:17:34;28.13;;;15.48;;
39078;SDS011;24829;49.208;12.080;2022-12-07T07:19:59;27.17;;;15.65;;
39078;SDS011;24829;49.208;12.080;2022-12-07T07:22:25;28.00;;;15.02;;
39078;SDS011;24829;49.208;12.080;2022-12-07T07:24:51;24.13;;;14.93;;
39078;SDS011;24829;49.208;12.080;2022-12-07T07:27:16;23.70;;;15.07;;
39078;SDS011;24829;49.208;12.080;2022-12-07T07:29:42;26.38;;;15.35;;
39078;SDS011;24829;49.208;12.080;2022-12-07T07:32:07;25.77;;;15.18;;
39078;SDS011;24829;49.208;12.080;2022-12-07T07:34:33;25.55;;;15.40;;
39078;SDS011;24829;49.208;12.080;2022-12-07T07:36:59;28.40;;;15.68;;
39078;SDS011;24829;49.208;12.080;2022-12-07T07:39:25;23.85;;;14.43;;
39078;SDS011;24829;49.208;12.080;2022-12-07T07:41:50;26.13;;;15.23;;
39078;SDS011;24829;49.208;12.080;2022-12-07T07:44:16;27.05;;;14.90;;
39078;SDS011;24829;49.208;12.080;2022-12-07T07:46:42;25.98;;;15.82;;
39078;SDS011;24829;49.208;12.080;2022-12-07T07:49:08;27.42;;;14.30;;
39078;SDS011;24829;49.208;12.080;2022-12-07T07:51:35;25.92;;;15.70;;
39078;SDS011;24829;49.208;12.080;2022-12-07T07:54:01;25.00;;;13.88;;
39078;SDS011;24829;49.208;12.080;2022-12-07T07:56:27;25.45;;;14.88;;
39078;SDS011;24829;49.208;12.080;2022-12-07T07:58:53;26.98;;;14.98;;
39078;SDS011;24829;49.208;12.080;2022-12-07T08:01:18;24.08;;;13.93;;
39078;SDS011;24829;49.208;12.080;2022-12-07T08:03:45;24.85;;;14.50;;
39078;SDS011;24829;49.208;12.080;2022-12-07T08:06:11;23.75;;;13.65;;
39078;SDS011;24829;49.208;12.080;2022-12-07T08:08:37;26.83;;;15.13;;
39078;SDS011;24829;49.208;12.080;2022-12-07T08:11:06;23.30;;;13.98;;
39078;SDS011;24829;49.208;12.080;2022-12-07T08:13:32;25.40;;;13.13;;
39078;SDS011;24829;49.208;12.080;2022-12-07T08:15:58;21.08;;;13.23;;
39078;SDS011;24829;49.208;12.080;2022-12-07T08:18:27;24.52;;;14.10;;
39078;SDS011;24829;49.208;12.080;2022-12-07T08:20:58;25.48;;;14.20;;
39078;SDS011;24829;49.208;12.080;2022-12-07T08:23:25;24.52;;;14.32;;
39078;SDS011;24829;49.208;12.080;2022-12-07T08:25:50;23.80;;;13.93;;
39078;SDS011;24829;49.208;12.080;2022-12-07T08:28:16;22.27;;;13.77;;
39078;SDS011;24829;49.208;12.080;2022-12-07T08:30:41;25.45;;;13.52;;
39078;SDS011;24829;49.208;12.080;2022-12-07T08:33:07;21.95;;;13.13;;
39078;SDS011;24829;49.208;12.080;2022-12-07T08:35:35;23.67;;;13.80;;
39078;SDS011;24829;49.208;12.080;2022-12-07T08:38:01;24.45;;;13.50;;
39078;SDS011;24829;49.208;12.080;2022-12-07T08:40:27;22.92;;;13.10;;
39078;SDS011;24829;49.208;12.080;2022-12-07T08:42:53;24.95;;;13.70;;
39078;SDS011;24829;49.208;12.080;2022-12-07T08:45:19;24.45;;;12.57;;
39078;SDS011;24829;49.208;12.080;2022-12-07T08:47:48;22.30;;;12.52;;
39078;SDS011;24829;49.208;12.080;2022-12-07T08:50:19;25.58;;;14.45;;
39078;SDS011;24829;49.208;12.080;2022-12-07T08:52:48;23.63;;;12.73;;
39078;SDS011;24829;49.208;12.080;2022-12-07T08:55:15;24.10;;;12.63;;
39078;SDS011;24829;49.208;12.080;2022-12-07T08:57:41;20.77;;;12.38;;
39078;SDS011;24829;49.208;12.080;2022-12-07T09:00:08;22.10;;;12.55;;
39078;SDS011;24829;49.208;12.080;2022-12-07T09:02:34;26.30;;;13.82;;
39078;SDS011;24829;49.208;12.080;2022-12-07T09:04:59;20.77;;;11.82;;
39078;SDS011;24829;49.208;12.080;2022-12-07T09:07:25;21.65;;;12.75;;
39078;SDS011;24829;49.208;12.080;2022-12-07T09:09:52;20.58;;;11.80;;
39078;SDS011;24829;49.208;12.080;2022-12-07T09:12:17;22.23;;;12.55;;
39078;SDS011;24829;49.208;12.080;2022-12-07T09:14:43;24.70;;;13.68;;
39078;SDS011;24829;49.208;12.080;2022-12-07T09:17:10;22.33;;;12.75;;
39078;SDS011;24829;49.208;12.080;2022-12-07T09:19:37;20.40;;;11.38;;
39078;SDS011;24829;49.208;12.080;2022-12-07T09:22:02;19.25;;;11.05;;
39078;SDS011;24829;49.208;12.080;2022-12-07T09:24:32;18.75;;;12.02;;
39078;SDS011;24829;49.208;12.080;2022-12-07T09:26:58;18.23;;;10.45;;
39078;SDS011;24829;49.208;12.080;2022-12-07T09:29:24;19.27;;;11.23;;
39078;SDS011;24829;49.208;12.080;2022-12-07T09:31:50;19.77;;;11.55;;
39078;SDS011;24829;49.208;12.080;2022-12-07T09:34:16;17.67;;;11.02;;
39078;SDS011;24829;49.208;12.080;2022-12-07T09:36:42;20.08;;;10.68;;
39078;SDS011;24829;49.208;12.080;2022-12-07T09:39:08;22.60;;;11.20;;
39078;SDS011;24829;49.208;12.080;2022-12-07T09:41:33;19.40;;;11.85;;
39078;SDS011;24829;49.208;12.080;2022-12-07T09:44:08;19.75;;;10.88;;
39078;SDS011;24829;49.208;12.080;2022-12-07T09:46:36;21.95;;;12.50;;
39078;SDS011;24829;49.208;12.080;2022-12-07T09:49:04;22.95;;;12.70;;
39078;SDS011;24829;49.208;12.080;2022-12-07T09:51:34;24.58;;;14.27;;
39078;SDS011;24829;49.208;12.080;2022-12-07T09:54:00;22.20;;;12.85;;
39078;SDS011;24829;49.208;12.080;2022-12-07T09:56:28;24.65;;;12.25;;
39078;SDS011;24829;49.208;12.080;2022-12-07T09:58:58;19.10;;;10.88;;
39078;SDS011;24829;49.208;12.080;2022-12-07T10:01:27;21.30;;;11.98;;
39078;SDS011;24829;49.208;12.080;2022-12-07T10:03:58;22.17;;;12.52;;
39078;SDS011;24829;49.208;12.080;2022-12-07T10:06:43;23.13;;;12.85;;
39078;SDS011;24829;49.208;12.080;2022-12-07T10:09:11;21.13;;;11.05;;
39078;SDS011;24829;49.208;12.080;2022-12-07T10:14:25;21.23;;;11.45;;
39078;SDS011;24829;49.208;12.080;2022-12-07T10:16:53;18.27;;;11.05;;
39078;SDS011;24829;49.208;12.080;2022-12-07T10:19:29;22.05;;;11.68;;
39078;SDS011;24829;49.208;12.080;2022-12-07T10:24:41;17.70;;;10.57;;
39078;SDS011;24829;49.208;12.080;2022-12-07T10:27:20;18.52;;;10.75;;
39078;SDS011;24829;49.208;12.080;2022-12-07T10:29:51;16.27;;;10.05;;
39078;SDS011;24829;49.208;12.080;2022-12-07T10:37:18;21.75;;;11.95;;
39078;SDS011;24829;49.208;12.080;2022-12-07T10:42:19;18.13;;;10.40;;
39078;SDS011;24829;49.208;12.080;2022-12-07T10:44:45;17.30;;;9.52;;
39078;SDS011;24829;49.208;12.080;2022-12-07T11:00:24;17.70;;;10.73;;
39078;SDS011;24829;49.208;12.080;2022-12-07T11:13:46;16.20;;;8.85;;
39078;SDS011;24829;49.208;12.080;2022-12-07T11:17:14;14.30;;;8.55;;
39078;SDS011;24829;49.208;12.080;2022-12-07T11:19:25;15.18;;;8.63;;
39078;SDS011;24829;49.208;12.080;2022-12-07T11:22:06;17.45;;;8.88;;
39078;SDS011;24829;49.208;12.080;2022-12-07T11:24:41;18.13;;;10.48;;
39078;SDS011;24829;49.208;12.080;2022-12-07T11:27:21;16.67;;;9.90;;
39078;SDS011;24829;49.208;12.080;2022-12-07T11:38:15;17.35;;;9.65;;
39078;SDS011;24829;49.208;12.080;2022-12-07T11:40:43;18.98;;;9.85;;
39078;SDS011;24829;49.208;12.080;2022-12-07T11:43:28;16.70;;;9.65;;
39078;SDS011;24829;49.208;12.080;2022-12-07T11:48:35;18.45;;;9.85;;
39078;SDS011;24829;49.208;12.080;2022-12-07T11:51:11;16.70;;;9.13;;
39078;SDS011;24829;49.208;12.080;2022-12-07T11:53:39;16.05;;;10.45;;
39078;SDS011;24829;49.208;12.080;2022-12-07T11:56:19;17.40;;;9.55;;
39078;SDS011;24829;49.208;12.080;2022-12-07T12:03:59;16.02;;;9.63;;
39078;SDS011;24829;49.208;12.080;2022-12-07T12:06:36;17.48;;;10.77;;
39078;SDS011;24829;49.208;12.080;2022-12-07T12:09:15;18.58;;;10.15;;
39078;SDS011;24829;49.208;12.080;2022-12-07T12:17:50;15.95;;;10.00;;
39078;SDS011;24829;49.208;12.080;2022-12-07T12:20:29;16.40;;;9.05;;
39078;SDS011;24829;49.208;12.080;2022-12-07T12:25:47;17.85;;;9.88;;
39078;SDS011;24829;49.208;12.080;2022-12-07T12:28:34;15.43;;;9.27;;
39078;SDS011;24829;49.208;12.080;2022-12-07T12:31:05;16.45;;;9.90;;
39078;SDS011;24829;49.208;12.080;2022-12-07T12:33:34;18.25;;;10.30;;
39078;SDS011;24829;49.208;12.080;2022-12-07T12:44:01;16.88;;;10.00;;
39078;SDS011;24829;49.208;12.080;2022-12-07T12:51:47;15.68;;;9.75;;
39078;SDS011;24829;49.208;12.080;2022-12-07T12:57:05;16.27;;;10.90;;
39078;SDS011;24829;49.208;12.080;2022-12-07T12:59:55;15.98;;;9.95;;
39078;SDS011;24829;49.208;12.080;2022-12-07T13:02:26;15.20;;;9.23;;
39078;SDS011;24829;49.208;12.080;2022-12-07T13:04:54;14.18;;;9.13;;
39078;SDS011;24829;49.208;12.080;2022-12-07T13:12:57;16.48;;;9.32;;
39078;SDS011;24829;49.208;12.080;2022-12-07T13:15:31;14.77;;;9.82;;
39078;SDS011;24829;49.208;12.080;2022-12-07T13:17:59;17.83;;;10.55;;
39078;SDS011;24829;49.208;12.080;2022-12-07T13:23:12;16.25;;;9.07;;
39078;SDS011;24829;49.208;12.080;2022-12-07T13:25:44;17.70;;;10.43;;
39078;SDS011;24829;49.208;12.080;2022-12-07T13:28:35;20.55;;;10.07;;
39078;SDS011;24829;49.208;12.080;2022-12-07T13:33:41;16.75;;;9.40;;
39078;SDS011;24829;49.208;12.080;2022-12-07T13:36:14;19.10;;;10.35;;
39078;SDS011;24829;49.208;12.080;2022-12-07T13:38:48;15.88;;;9.82;;
39078;SDS011;24829;49.208;12.080;2022-12-07T13:41:16;15.80;;;9.30;;
39078;SDS011;24829;49.208;12.080;2022-12-07T13:44:33;16.73;;;10.20;;
39078;SDS011;24829;49.208;12.080;2022-12-07T13:49:18;16.05;;;9.70;;
39078;SDS011;24829;49.208;12.080;2022-12-07T13:51:44;15.05;;;8.73;;
39078;SDS011;24829;49.208;12.080;2022-12-07T13:54:11;16.33;;;8.68;;
39078;SDS011;24829;49.208;12.080;2022-12-07T13:56:37;14.52;;;8.68;;
39078;SDS011;24829;49.208;12.080;2022-12-07T13:59:25;14.30;;;8.90;;
39078;SDS011;24829;49.208;12.080;2022-12-07T14:01:51;16.25;;;10.43;;
39078;SDS011;24829;49.208;12.080;2022-12-07T14:12:31;17.50;;;9.70;;
39078;SDS011;24829;49.208;12.080;2022-12-07T14:14:59;16.52;;;9.55;;
39078;SDS011;24829;49.208;12.080;2022-12-07T14:17:27;15.60;;;9.88;;
39078;SDS011;24829;49.208;12.080;2022-12-07T14:19:56;17.65;;;9.15;;
39078;SDS011;24829;49.208;12.080;2022-12-07T14:27:20;13.20;;;8.05;;
39078;SDS011;24829;49.208;12.080;2022-12-07T14:29:50;16.85;;;11.00;;
39078;SDS011;24829;49.208;12.080;2022-12-07T14:32:20;22.55;;;13.80;;
39078;SDS011;24829;49.208;12.080;2022-12-07T14:34:58;18.63;;;12.60;;
39078;SDS011;24829;49.208;12.080;2022-12-07T14:37:26;18.77;;;12.48;;
39078;SDS011;24829;49.208;12.080;2022-12-07T14:39:53;24.25;;;14.30;;
39078;SDS011;24829;49.208;12.080;2022-12-07T14:42:18;21.30;;;14.68;;
39078;SDS011;24829;49.208;12.080;2022-12-07T14:44:45;19.15;;;12.93;;
39078;SDS011;24829;49.208;12.080;2022-12-07T14:47:10;18.92;;;11.23;;
39078;SDS011;24829;49.208;12.080;2022-12-07T14:49:36;19.27;;;12.45;;
39078;SDS011;24829;49.208;12.080;2022-12-07T14:52:02;15.02;;;9.90;;
39078;SDS011;24829;49.208;12.080;2022-12-07T14:54:29;17.08;;;10.02;;
39078;SDS011;24829;49.208;12.080;2022-12-07T14:56:57;15.43;;;8.82;;
39078;SDS011;24829;49.208;12.080;2022-12-07T14:59:23;14.48;;;8.48;;
39078;SDS011;24829;49.208;12.080;2022-12-07T15:01:49;15.43;;;9.10;;
39078;SDS011;24829;49.208;12.080;2022-12-07T15:04:14;16.48;;;8.73;;
39078;SDS011;24829;49.208;12.080;2022-12-07T15:06:40;17.40;;;8.70;;
39078;SDS011;24829;49.208;12.080;2022-12-07T15:09:08;15.25;;;9.40;;
39078;SDS011;24829;49.208;12.080;2022-12-07T15:11:36;16.27;;;8.73;;
39078;SDS011;24829;49.208;12.080;2022-12-07T15:14:01;15.45;;;8.88;;
39078;SDS011;24829;49.208;12.080;2022-12-07T15:16:33;15.68;;;8.48;;
39078;SDS011;24829;49.208;12.080;2022-12-07T15:18:59;20.02;;;9.13;;
39078;SDS011;24829;49.208;12.080;2022-12-07T15:21:25;16.25;;;9.73;;
39078;SDS011;24829;49.208;12.080;2022-12-07T15:23:50;15.02;;;8.93;;
39078;SDS011;24829;49.208;12.080;2022-12-07T15:26:16;16.00;;;9.32;;
39078;SDS011;24829;49.208;12.080;2022-12-07T15:28:42;17.80;;;11.90;;
39078;SDS011;24829;49.208;12.080;2022-12-07T15:31:14;17.13;;;10.90;;
39078;SDS011;24829;49.208;12.080;2022-12-07T15:33:41;18.55;;;10.20;;
39078;SDS011;24829;49.208;12.080;2022-12-07T15:36:07;15.02;;;9.80;;
39078;SDS011;24829;49.208;12.080;2022-12-07T15:38:40;17.85;;;9.98;;
39078;SDS011;24829;49.208;12.080;2022-12-07T15:41:06;17.35;;;11.00;;
39078;SDS011;24829;49.208;12.080;2022-12-07T15:43:31;25.17;;;13.93;;
39078;SDS011;24829;49.208;12.080;2022-12-07T15:46:16;37.60;;;19.98;;
39078;SDS011;24829;49.208;12.080;2022-12-07T15:48:41;22.23;;;12.57;;
39078;SDS011;24829;49.208;12.080;2022-12-07T15:51:07;20.65;;;9.98;;
39078;SDS011;24829;49.208;12.080;2022-12-07T15:53:34;17.55;;;11.27;;
39078;SDS011;24829;49.208;12.080;2022-12-07T15:56:00;19.30;;;12.07;;
39078;SDS011;24829;49.208;12.080;2022-12-07T15:58:26;20.52;;;10.52;;
39078;SDS011;24829;49.208;12.080;2022-12-07T16:00:51;18.23;;;10.10;;
39078;SDS011;24829;49.208;12.080;2022-12-07T16:03:17;17.90;;;10.05;;
39078;SDS011;24829;49.208;12.080;2022-12-07T16:05:48;14.07;;;9.38;;
39078;SDS011;24829;49.208;12.080;2022-12-07T16:08:14;14.63;;;9.35;;
39078;SDS011;24829;49.208;12.080;2022-12-07T16:10:40;14.05;;;8.73;;
39078;SDS011;24829;49.208;12.080;2022-12-07T16:13:08;16.60;;;9.32;;
39078;SDS011;24829;49.208;12.080;2022-12-07T16:15:38;15.02;;;9.25;;
39078;SDS011;24829;49.208;12.080;2022-12-07T16:18:04;16.27;;;9.68;;
39078;SDS011;24829;49.208;12.080;2022-12-07T16:20:29;15.30;;;9.50;;
39078;SDS011;24829;49.208;12.080;2022-12-07T16:22:55;15.88;;;9.32;;
39078;SDS011;24829;49.208;12.080;2022-12-07T16:25:21;16.25;;;10.23;;
39078;SDS011;24829;49.208;12.080;2022-12-07T16:27:46;15.82;;;9.55;;
39078;SDS011;24829;49.208;12.080;2022-12-07T16:30:12;15.75;;;9.82;;
39078;SDS011;24829;49.208;12.080;2022-12-07T16:32:39;19.00;;;11.10;;
39078;SDS011;24829;49.208;12.080;2022-12-07T16:35:04;14.82;;;8.77;;